sensor_id;sensor_type;location;lat;lon;timestamp;pressure;altitude;pressure_sealevel;temperature;humidity
6829;BME280;17930;48.592;8.868;2023-06-26T00:00:45;96762.25;;;17.43;100.00
6829;BME280;17930;48.592;8.868;2023-06-26T00:03:12;96760.13;;;17.28;100.00
6829;BME280;17930;48.592;8.868;2023-06-26T00:05:40;96759.31;;;17.19;100.00
6829;BME280;17930;48.592;8.868;2023-06-26T00:08:07;96765.09;;;17.21;100.00
6829;BME280;17930;48.592;8.868;2023-06-26T00:10:34;96761.72;;;17.74;100.00
6829;BME280;17930;48.592;8.868;2023-06-26T00:13:01;96766.75;;;17.96;100.00
6829;BME280;17930;48.592;8.868;2023-06-26T00:15:30;96764.38;;;18.03;100.00
6829;BME280;17930;48.592;8.868;2023-06-26T00:17:57;96772.59;;;18.10;100.00
6829;BME280;17930;48.592;8.868;2023-06-26T00:20:24;96768.03;;;17.90;100.00
6829;BME280;17930;48.592;8.868;2023-06-26T00:22:51;96762.38;;;17.63;100.00
6829;BME280;17930;48.592;8.868;2023-06-26T00:25:19;96769.78;;;17.69;100.00
6829;BME280;17930;48.592;8.868;2023-06-26T00:27:46;96767.97;;;17.61;100.00
6829;BME280;17930;48.592;8.868;2023-06-26T00:30:12;96772.38;;;17.86;100.00
6829;BME280;17930;48.592;8.868;2023-06-26T00:32:40;96765.00;;;17.71;100.00
6829;BME280;17930;48.592;8.868;2023-06-26T00:35:07;96775.44;;;17.51;100.00
6829;BME280;17930;48.592;8.868;2023-06-26T00:37:34;96766.72;;;17.59;100.00
6829;BME280;17930;48.592;8.868;2023-06-26T00:40:01;96769.72;;;17.49;100.00
6829;BME280;17930;48.592;8.868;2023-06-26T00:42:27;96775.78;;;17.33;100.00
6829;BME280;17930;48.592;8.868;2023-06-26T00:44:54;96776.84;;;17.32;100.00
6829;BME280;17930;48.592;8.868;2023-06-26T00:47:20;96779.16;;;17.50;100.00
6829;BME280;17930;48.592;8.868;2023-06-26T00:49:49;96782.31;;;17.35;100.00
6829;BME280;17930;48.592;8.868;2023-06-26T00:52:15;96781.22;;;17.11;100.00
6829;BME280;17930;48.592;8.868;2023-06-26T00:54:43;96774.41;;;16.93;100.00
6829;BME280;17930;48.592;8.868;2023-06-26T00:57:10;96778.91;;;16.84;100.00
6829;BME280;17930;48.592;8.868;2023-06-26T00:59:36;96775.94;;;16.77;100.00
6829;BME280;17930;48.592;8.868;2023-06-26T01:02:04;96770.97;;;16.67;100.00
6829;BME280;17930;48.592;8.868;2023-06-26T01:04:31;96770.66;;;16.52;100.00
6829;BME280;17930;48.592;8.868;2023-06-26T01:07:01;96777.13;;;16.38;100.00
6829;BME280;17930;48.592;8.868;2023-06-26T01:09:33;96773.88;;;16.32;100.00
6829;BME280;17930;48.592;8.868;2023-06-26T01:12:00;96776.97;;;16.34;100.00
6829;BME280;17930;48.592;8.868;2023-06-26T01:14:28;96775.88;;;16.27;100.00
6829;BME280;17930;48.592;8.868;2023-06-26T01:16:55;96769.06;;;16.42;100.00
6829;BME280;17930;48.592;8.868;2023-06-26T01:19:24;96763.69;;;16.56;100.00
6829;BME280;17930;48.592;8.868;2023-06-26T01:22:00;96764.91;;;16.42;100.00
6829;BME280;17930;48.592;8.868;2023-06-26T01:24:33;96769.38;;;16.33;100.00
6829;BME280;17930;48.592;8.868;2023-06-26T01:27:04;96767.88;;;16.48;100.00
6829;BME280;17930;48.592;8.868;2023-06-26T01:29:32;96760.75;;;16.57;100.00
6829;BME280;17930;48.592;8.868;2023-06-26T01:32:00;96755.50;;;16.74;100.00
6829;BME280;17930;48.592;8.868;2023-06-26T01:34:27;96757.34;;;16.99;100.00
6829;BME280;17930;48.592;8.868;2023-06-26T01:36:54;96746.19;;;16.85;100.00
6829;BME280;17930;48.592;8.868;2023-06-26T01:39:20;96743.09;;;16.83;100.00
6829;BME280;17930;48.592;8.868;2023-06-26T01:41:47;96749.91;;;16.84;100.00
6829;BME280;17930;48.592;8.868;2023-06-26T01:44:23;96748.66;;;16.73;100.00
6829;BME280;17930;48.592;8.868;2023-06-26T01:46:58;96748.19;;;16.46;100.00
6829;BME280;17930;48.592;8.868;2023-06-26T01:49:33;96749.25;;;16.37;100.00
6829;BME280;17930;48.592;8.868;2023-06-26T01:52:07;96752.66;;;16.29;100.00
6829;BME280;17930;48.592;8.868;2023-06-26T01:54:39;96754.81;;;16.27;100.00
6829;BME280;17930;48.592;8.868;2023-06-26T01:57:08;96748.56;;;16.23;100.00
6829;BME280;17930;48.592;8.868;2023-06-26T01:59:38;96744.53;;;16.17;100.00
6829;BME280;17930;48.592;8.868;2023-06-26T02:02:07;96748.25;;;16.16;100.00
6829;BME280;17930;48.592;8.868;2023-06-26T02:04:33;96754.72;;;16.10;100.00
6829;BME280;17930;48.592;8.868;2023-06-26T02:07:00;96754.41;;;16.03;100.00
6829;BME280;17930;48.592;8.868;2023-06-26T02:09:26;96760.88;;;15.97;100.00
6829;BME280;17930;48.592;8.868;2023-06-26T02:11:53;96750.25;;;16.10;100.00
6829;BME280;17930;48.592;8.868;2023-06-26T02:14:20;96746.31;;;15.91;100.00
6829;BME280;17930;48.592;8.868;2023-06-26T02:16:48;96760.00;;;16.10;100.00
6829;BME280;17930;48.592;8.868;2023-06-26T02:19:14;96757.22;;;16.15;100.00
6829;BME280;17930;48.592;8.868;2023-06-26T02:21:47;96764.34;;;16.23;100.00
6829;BME280;17930;48.592;8.868;2023-06-26T02:24:14;96764.03;;;16.16;100.00
6829;BME280;17930;48.592;8.868;2023-06-26T02:26:40;96761.88;;;16.18;100.00
6829;BME280;17930;48.592;8.868;2023-06-26T02:29:07;96764.97;;;16.20;100.00
6829;BME280;17930;48.592;8.868;2023-06-26T02:31:34;96755.34;;;16.07;100.00
6829;BME280;17930;48.592;8.868;2023-06-26T02:34:02;96759.72;;;16.20;100.00
6829;BME280;17930;48.592;8.868;2023-06-26T02:36:29;96759.38;;;16.13;100.00
6829;BME280;17930;48.592;8.868;2023-06-26T02:38:55;96769.56;;;16.06;100.00
6829;BME280;17930;48.592;8.868;2023-06-26T02:41:22;96761.63;;;15.81;100.00
6829;BME280;17930;48.592;8.868;2023-06-26T02:43:49;96770.09;;;15.78;100.00
6829;BME280;17930;48.592;8.868;2023-06-26T02:46:15;96762.22;;;15.47;100.00
6829;BME280;17930;48.592;8.868;2023-06-26T02:48:42;96764.47;;;15.62;100.00
6829;BME280;17930;48.592;8.868;2023-06-26T02:51:10;96762.31;;;15.64;100.00
6829;BME280;17930;48.592;8.868;2023-06-26T02:53:36;96765.13;;;15.76;100.00
6829;BME280;17930;48.592;8.868;2023-06-26T02:56:04;96769.03;;;15.79;100.00
6829;BME280;17930;48.592;8.868;2023-06-26T02:58:30;96763.59;;;15.75;100.00
6829;BME280;17930;48.592;8.868;2023-06-26T03:00:57;96763.28;;;15.77;100.00
6829;BME280;17930;48.592;8.868;2023-06-26T03:03:24;96762.03;;;15.74;100.00
6829;BME280;17930;48.592;8.868;2023-06-26T03:05:50;96765.41;;;15.66;100.00
6829;BME280;17930;48.592;8.868;2023-06-26T03:08:18;96760.41;;;15.56;100.00
6829;BME280;17930;48.592;8.868;2023-06-26T03:10:45;96767.97;;;15.58;100.00
6829;BME280;17930;48.592;8.868;2023-06-26T03:13:12;96762.19;;;15.78;100.00
6829;BME280;17930;48.592;8.868;2023-06-26T03:15:38;96765.13;;;15.76;100.00
6829;BME280;17930;48.592;8.868;2023-06-26T03:18:05;96765.44;;;15.75;100.00
6829;BME280;17930;48.592;8.868;2023-06-26T03:20:32;96774.03;;;15.58;100.00
6829;BME280;17930;48.592;8.868;2023-06-26T03:22:58;96768.03;;;15.36;100.00
6829;BME280;17930;48.592;8.868;2023-06-26T03:25:26;96770.00;;;15.31;100.00
6829;BME280;17930;48.592;8.868;2023-06-26T03:27:53;96768.94;;;15.32;100.00
6829;BME280;17930;48.592;8.868;2023-06-26T03:30:20;96774.91;;;15.24;100.00
6829;BME280;17930;48.592;8.868;2023-06-26T03:32:46;96765.81;;;15.30;100.00
6829;BME280;17930;48.592;8.868;2023-06-26T03:35:13;96771.50;;;15.23;100.00
6829;BME280;17930;48.592;8.868;2023-06-26T03:37:40;96768.59;;;15.25;100.00
6829;BME280;17930;48.592;8.868;2023-06-26T03:40:08;96778.53;;;15.14;100.00
6829;BME280;17930;48.592;8.868;2023-06-26T03:42:36;96775.25;;;15.09;100.00
6829;BME280;17930;48.592;8.868;2023-06-26T03:45:03;96777.16;;;15.17;100.00
6829;BME280;17930;48.592;8.868;2023-06-26T03:47:29;96771.88;;;15.17;100.00
6829;BME280;17930;48.592;8.868;2023-06-26T03:49:56;96775.41;;;15.26;100.00
6829;BME280;17930;48.592;8.868;2023-06-26T03:52:23;96769.28;;;15.38;100.00
6829;BME280;17930;48.592;8.868;2023-06-26T03:54:49;96770.16;;;15.26;100.00
6829;BME280;17930;48.592;8.868;2023-06-26T03:57:16;96769.69;;;15.10;100.00
6829;BME280;17930;48.592;8.868;2023-06-26T03:59:44;96781.06;;;15.19;100.00
6829;BME280;17930;48.592;8.868;2023-06-26T04:02:10;96775.22;;;15.22;100.00
6829;BME280;17930;48.592;8.868;2023-06-26T04:04:38;96776.69;;;15.37;100.00
6829;BME280;17930;48.592;8.868;2023-06-26T04:07:04;96774.06;;;15.37;100.00
6829;BME280;17930;48.592;8.868;2023-06-26T04:09:31;96779.84;;;15.25;100.00
6829;BME280;17930;48.592;8.868;2023-06-26T04:11:58;96785.31;;;15.29;100.00
6829;BME280;17930;48.592;8.868;2023-06-26T04:14:24;96778.72;;;15.39;100.00
6829;BME280;17930;48.592;8.868;2023-06-26T04:16:52;96782.44;;;15.38;100.00
6829;BME280;17930;48.592;8.868;2023-06-26T04:19:19;96785.06;;;15.38;100.00
6829;BME280;17930;48.592;8.868;2023-06-26T04:21:46;96780.59;;;15.69;100.00
6829;BME280;17930;48.592;8.868;2023-06-26T04:24:12;96783.81;;;15.66;100.00
6829;BME280;17930;48.592;8.868;2023-06-26T04:26:39;96784.00;;;15.70;100.00
6829;BME280;17930;48.592;8.868;2023-06-26T04:29:07;96781.53;;;15.73;100.00
6829;BME280;17930;48.592;8.868;2023-06-26T04:31:34;96785.00;;;15.82;100.00
6829;BME280;17930;48.592;8.868;2023-06-26T04:34:02;96782.47;;;15.77;100.00
6829;BME280;17930;48.592;8.868;2023-06-26T04:36:28;96776.59;;;15.80;100.00
6829;BME280;17930;48.592;8.868;2023-06-26T04:38:56;96778.22;;;15.98;100.00
6829;BME280;17930;48.592;8.868;2023-06-26T04:41:23;96771.41;;;15.97;100.00
6829;BME280;17930;48.592;8.868;2023-06-26T04:43:50;96780.22;;;15.92;100.00
6829;BME280;17930;48.592;8.868;2023-06-26T04:46:17;96766.81;;;16.11;100.00
6829;BME280;17930;48.592;8.868;2023-06-26T04:48:43;96765.88;;;16.07;100.00
6829;BME280;17930;48.592;8.868;2023-06-26T04:51:11;96768.03;;;16.05;100.00
6829;BME280;17930;48.592;8.868;2023-06-26T04:53:38;96775.88;;;16.35;100.00
6829;BME280;17930;48.592;8.868;2023-06-26T04:56:05;96767.91;;;16.65;100.00
6829;BME280;17930;48.592;8.868;2023-06-26T04:58:32;96771.13;;;16.79;100.00
6829;BME280;17930;48.592;8.868;2023-06-26T05:00:58;96774.41;;;16.93;100.00
6829;BME280;17930;48.592;8.868;2023-06-26T05:03:25;96770.19;;;17.17;100.00
6829;BME280;17930;48.592;8.868;2023-06-26T05:05:52;96759.31;;;17.19;100.00
6829;BME280;17930;48.592;8.868;2023-06-26T05:08:22;96757.00;;;17.43;100.00
6829;BME280;17930;48.592;8.868;2023-06-26T05:10:49;96765.13;;;17.75;100.00
6829;BME280;17930;48.592;8.868;2023-06-26T05:13:18;96755.19;;;18.09;100.00
6829;BME280;17930;48.592;8.868;2023-06-26T05:15:45;96749.56;;;18.48;100.00
6829;BME280;17930;48.592;8.868;2023-06-26T05:18:12;96755.44;;;18.73;100.00
6829;BME280;17930;48.592;8.868;2023-06-26T05:20:39;96756.78;;;18.99;100.00
6829;BME280;17930;48.592;8.868;2023-06-26T05:23:06;96753.31;;;19.40;100.00
6829;BME280;17930;48.592;8.868;2023-06-26T05:25:35;96759.28;;;19.37;100.00
6829;BME280;17930;48.592;8.868;2023-06-26T05:28:02;96757.28;;;19.34;100.00
6829;BME280;17930;48.592;8.868;2023-06-26T05:30:31;96752.69;;;19.43;100.00
6829;BME280;17930;48.592;8.868;2023-06-26T05:33:01;96752.59;;;19.63;100.00
6829;BME280;17930;48.592;8.868;2023-06-26T05:35:29;96760.22;;;19.64;100.00
6829;BME280;17930;48.592;8.868;2023-06-26T05:37:56;96757.41;;;20.17;100.00
6829;BME280;17930;48.592;8.868;2023-06-26T05:40:24;96750.13;;;20.50;100.00
6829;BME280;17930;48.592;8.868;2023-06-26T05:42:53;96758.72;;;20.47;100.00
6829;BME280;17930;48.592;8.868;2023-06-26T05:45:19;96746.47;;;20.54;100.00
6829;BME280;17930;48.592;8.868;2023-06-26T05:47:46;96751.84;;;20.81;100.00
6829;BME280;17930;48.592;8.868;2023-06-26T05:50:17;96753.34;;;21.21;100.00
6829;BME280;17930;48.592;8.868;2023-06-26T05:52:44;96754.19;;;21.37;100.00
6829;BME280;17930;48.592;8.868;2023-06-26T05:55:13;96751.91;;;21.66;100.00
6829;BME280;17930;48.592;8.868;2023-06-26T05:57:40;96744.56;;;21.75;100.00
6829;BME280;17930;48.592;8.868;2023-06-26T06:00:09;96748.59;;;22.00;100.00
6829;BME280;17930;48.592;8.868;2023-06-26T06:02:36;96739.16;;;22.03;100.00
6829;BME280;17930;48.592;8.868;2023-06-26T06:05:04;96745.41;;;22.41;100.00
6829;BME280;17930;48.592;8.868;2023-06-26T06:07:31;96741.19;;;22.40;100.00
6829;BME280;17930;48.592;8.868;2023-06-26T06:09:58;96744.31;;;22.61;100.00
6829;BME280;17930;48.592;8.868;2023-06-26T06:12:24;96743.22;;;22.62;100.00
6829;BME280;17930;48.592;8.868;2023-06-26T06:14:51;96732.34;;;23.04;100.00
6829;BME280;17930;48.592;8.868;2023-06-26T06:17:20;96744.22;;;23.29;100.00
6829;BME280;17930;48.592;8.868;2023-06-26T06:19:46;96739.13;;;23.80;100.00
6829;BME280;17930;48.592;8.868;2023-06-26T06:22:13;96735.66;;;23.80;100.00
6829;BME280;17930;48.592;8.868;2023-06-26T06:24:40;96741.72;;;24.25;100.00
6829;BME280;17930;48.592;8.868;2023-06-26T06:27:06;96727.88;;;24.68;100.00
6829;BME280;17930;48.592;8.868;2023-06-26T06:29:34;96729.13;;;24.74;100.00
6829;BME280;17930;48.592;8.868;2023-06-26T06:32:01;96730.56;;;25.26;100.00
6829;BME280;17930;48.592;8.868;2023-06-26T06:34:29;96727.41;;;25.53;100.00
6829;BME280;17930;48.592;8.868;2023-06-26T06:36:55;96746.53;;;24.64;100.00
6829;BME280;17930;48.592;8.868;2023-06-26T06:39:22;96730.06;;;25.50;100.00
6829;BME280;17930;48.592;8.868;2023-06-26T06:41:49;96724.91;;;25.71;100.00
6829;BME280;17930;48.592;8.868;2023-06-26T06:44:16;96728.59;;;25.95;100.00
6829;BME280;17930;48.592;8.868;2023-06-26T06:46:42;96734.56;;;26.25;100.00
6829;BME280;17930;48.592;8.868;2023-06-26T06:49:09;96734.16;;;26.23;100.00
6829;BME280;17930;48.592;8.868;2023-06-26T06:51:37;96734.88;;;26.74;100.00
6829;BME280;17930;48.592;8.868;2023-06-26T06:54:04;96742.16;;;26.77;100.00
6829;BME280;17930;48.592;8.868;2023-06-26T06:56:30;96739.56;;;26.87;100.00
6829;BME280;17930;48.592;8.868;2023-06-26T06:58:57;96730.72;;;27.95;100.00
6829;BME280;17930;48.592;8.868;2023-06-26T07:01:24;96729.56;;;27.93;100.00
6829;BME280;17930;48.592;8.868;2023-06-26T07:03:52;96721.47;;;27.89;100.00
6829;BME280;17930;48.592;8.868;2023-06-26T07:06:19;96726.84;;;27.79;100.00
6829;BME280;17930;48.592;8.868;2023-06-26T07:08:47;96712.25;;;28.53;100.00
6829;BME280;17930;48.592;8.868;2023-06-26T07:11:14;96712.16;;;29.01;100.00
6829;BME280;17930;48.592;8.868;2023-06-26T07:13:40;96714.13;;;28.84;100.00
6829;BME280;17930;48.592;8.868;2023-06-26T07:16:07;96711.47;;;28.77;100.00
6829;BME280;17930;48.592;8.868;2023-06-26T07:18:37;96714.06;;;29.01;100.00
6829;BME280;17930;48.592;8.868;2023-06-26T07:21:07;96718.00;;;28.58;100.00
6829;BME280;17930;48.592;8.868;2023-06-26T07:23:34;96716.66;;;29.29;100.00
6829;BME280;17930;48.592;8.868;2023-06-26T07:26:02;96713.53;;;29.98;99.90
6829;BME280;17930;48.592;8.868;2023-06-26T07:28:28;96705.47;;;29.95;96.93
6829;BME280;17930;48.592;8.868;2023-06-26T07:30:55;96709.19;;;30.14;95.66
6829;BME280;17930;48.592;8.868;2023-06-26T07:33:22;96712.28;;;30.53;93.26
6829;BME280;17930;48.592;8.868;2023-06-26T07:35:49;96711.28;;;30.40;93.13
6829;BME280;17930;48.592;8.868;2023-06-26T07:38:15;96707.31;;;30.48;95.03
6829;BME280;17930;48.592;8.868;2023-06-26T07:40:42;96711.66;;;31.42;92.57
6829;BME280;17930;48.592;8.868;2023-06-26T07:43:10;96707.13;;;31.88;86.55
6829;BME280;17930;48.592;8.868;2023-06-26T07:45:37;96711.34;;;31.62;84.97
6829;BME280;17930;48.592;8.868;2023-06-26T07:48:07;96705.56;;;32.36;81.09
6829;BME280;17930;48.592;8.868;2023-06-26T07:50:35;96702.09;;;32.58;79.41
6829;BME280;17930;48.592;8.868;2023-06-26T07:53:02;96689.31;;;33.55;75.79
6829;BME280;17930;48.592;8.868;2023-06-26T07:55:31;96686.66;;;34.19;69.03
6829;BME280;17930;48.592;8.868;2023-06-26T07:57:57;96694.47;;;34.89;67.81
6829;BME280;17930;48.592;8.868;2023-06-26T08:00:26;96686.13;;;33.92;59.21
6829;BME280;17930;48.592;8.868;2023-06-26T08:02:52;96689.91;;;32.05;62.15
6829;BME280;17930;48.592;8.868;2023-06-26T08:05:19;96686.34;;;32.53;61.89
6829;BME280;17930;48.592;8.868;2023-06-26T08:07:46;96685.44;;;32.17;62.00
6829;BME280;17930;48.592;8.868;2023-06-26T08:10:13;96686.31;;;32.76;60.67
6829;BME280;17930;48.592;8.868;2023-06-26T08:12:39;96678.25;;;32.30;60.25
6829;BME280;17930;48.592;8.868;2023-06-26T08:15:08;96682.72;;;32.17;61.73
6829;BME280;17930;48.592;8.868;2023-06-26T08:17:37;96674.81;;;33.11;60.02
6829;BME280;17930;48.592;8.868;2023-06-26T08:20:05;96670.09;;;33.50;58.08
6829;BME280;17930;48.592;8.868;2023-06-26T08:22:33;96670.47;;;32.97;58.55
6829;BME280;17930;48.592;8.868;2023-06-26T08:25:01;96679.38;;;32.75;59.33
6829;BME280;17930;48.592;8.868;2023-06-26T08:27:29;96675.00;;;32.81;59.25
6829;BME280;17930;48.592;8.868;2023-06-26T08:29:55;96667.72;;;33.17;57.41
6829;BME280;17930;48.592;8.868;2023-06-26T08:32:22;96665.56;;;33.08;57.53
6829;BME280;17930;48.592;8.868;2023-06-26T08:34:50;96666.81;;;33.74;56.50
6829;BME280;17930;48.592;8.868;2023-06-26T08:37:17;96663.09;;;33.68;56.37
6829;BME280;17930;48.592;8.868;2023-06-26T08:39:45;96658.09;;;33.67;54.86
6829;BME280;17930;48.592;8.868;2023-06-26T08:42:12;96659.97;;;33.34;55.52
6829;BME280;17930;48.592;8.868;2023-06-26T08:44:38;96663.09;;;33.68;55.13
6829;BME280;17930;48.592;8.868;2023-06-26T08:47:05;96654.97;;;33.84;53.84
6829;BME280;17930;48.592;8.868;2023-06-26T08:49:37;96660.72;;;33.35;54.30
6829;BME280;17930;48.592;8.868;2023-06-26T08:52:15;96659.38;;;33.62;53.51
6829;BME280;17930;48.592;8.868;2023-06-26T08:54:45;96657.03;;;34.12;53.95
6829;BME280;17930;48.592;8.868;2023-06-26T08:57:15;96653.16;;;34.25;53.21
6829;BME280;17930;48.592;8.868;2023-06-26T08:59:44;96656.84;;;34.19;51.58
6829;BME280;17930;48.592;8.868;2023-06-26T09:02:12;96660.69;;;33.19;53.85
6829;BME280;17930;48.592;8.868;2023-06-26T09:04:42;96663.44;;;34.18;52.39
6829;BME280;17930;48.592;8.868;2023-06-26T09:07:09;96662.19;;;35.07;50.71
6829;BME280;17930;48.592;8.868;2023-06-26T09:09:37;96654.78;;;35.07;49.70
6829;BME280;17930;48.592;8.868;2023-06-26T09:12:05;96660.78;;;35.02;49.84
6829;BME280;17930;48.592;8.868;2023-06-26T09:14:32;96658.88;;;34.87;50.76
6829;BME280;17930;48.592;8.868;2023-06-26T09:16:58;96656.41;;;34.64;50.26
6829;BME280;17930;48.592;8.868;2023-06-26T09:19:26;96657.78;;;34.12;51.01
6829;BME280;17930;48.592;8.868;2023-06-26T09:21:52;96652.44;;;35.22;50.38
6829;BME280;17930;48.592;8.868;2023-06-26T09:24:21;96651.69;;;34.52;51.10
6829;BME280;17930;48.592;8.868;2023-06-26T09:26:51;96661.56;;;33.51;52.37
6829;BME280;17930;48.592;8.868;2023-06-26T09:29:19;96669.19;;;32.40;53.79
6829;BME280;17930;48.592;8.868;2023-06-26T09:31:46;96676.25;;;33.15;54.14
6829;BME280;17930;48.592;8.868;2023-06-26T09:34:15;96664.75;;;34.41;52.21
6829;BME280;17930;48.592;8.868;2023-06-26T09:36:41;96666.00;;;34.81;49.69
6829;BME280;17930;48.592;8.868;2023-06-26T09:39:12;96663.84;;;34.32;48.67
6829;BME280;17930;48.592;8.868;2023-06-26T09:41:41;96663.75;;;34.51;49.09
6829;BME280;17930;48.592;8.868;2023-06-26T09:44:11;96657.31;;;34.45;48.19
6829;BME280;17930;48.592;8.868;2023-06-26T09:46:38;96660.81;;;34.86;47.47
6829;BME280;17930;48.592;8.868;2023-06-26T09:49:07;96666.22;;;34.74;47.99
6829;BME280;17930;48.592;8.868;2023-06-26T09:51:35;96658.13;;;33.98;48.23
6829;BME280;17930;48.592;8.868;2023-06-26T09:54:03;96658.03;;;34.18;48.51
6829;BME280;17930;48.592;8.868;2023-06-26T09:56:31;96666.06;;;34.65;48.71
6829;BME280;17930;48.592;8.868;2023-06-26T09:58:59;96663.44;;;34.90;47.65
6829;BME280;17930;48.592;8.868;2023-06-26T10:01:27;96653.88;;;35.38;47.38
6829;BME280;17930;48.592;8.868;2023-06-26T10:03:54;96661.06;;;35.45;48.75
6829;BME280;17930;48.592;8.868;2023-06-26T10:06:28;96661.78;;;35.21;48.41
6829;BME280;17930;48.592;8.868;2023-06-26T10:08:59;96657.41;;;34.70;48.09
6829;BME280;17930;48.592;8.868;2023-06-26T10:11:34;96662.38;;;35.00;48.52
6829;BME280;17930;48.592;8.868;2023-06-26T10:14:04;96662.81;;;35.88;48.57
6829;BME280;17930;48.592;8.868;2023-06-26T10:16:37;96671.41;;;35.87;48.90
6829;BME280;17930;48.592;8.868;2023-06-26T10:19:08;96672.03;;;35.66;50.20
6829;BME280;17930;48.592;8.868;2023-06-26T10:21:37;96674.06;;;35.25;51.03
6829;BME280;17930;48.592;8.868;2023-06-26T10:24:06;96676.59;;;35.44;50.75
6829;BME280;17930;48.592;8.868;2023-06-26T10:26:35;96688.28;;;36.16;50.26
6829;BME280;17930;48.592;8.868;2023-06-26T10:29:05;96682.03;;;35.69;50.47
6829;BME280;17930;48.592;8.868;2023-06-26T10:31:35;96688.28;;;34.60;51.81
6829;BME280;17930;48.592;8.868;2023-06-26T10:34:02;96699.50;;;34.30;52.96
6829;BME280;17930;48.592;8.868;2023-06-26T10:36:30;96699.69;;;34.23;54.06
6829;BME280;17930;48.592;8.868;2023-06-26T10:38:59;96696.91;;;34.99;53.25
6829;BME280;17930;48.592;8.868;2023-06-26T10:41:36;96706.28;;;35.11;52.14
6829;BME280;17930;48.592;8.868;2023-06-26T10:44:07;96711.66;;;34.70;54.08
6829;BME280;17930;48.592;8.868;2023-06-26T10:46:48;96714.19;;;34.77;54.47
6829;BME280;17930;48.592;8.868;2023-06-26T10:49:17;96717.78;;;35.02;54.73
6829;BME280;17930;48.592;8.868;2023-06-26T10:51:46;96716.56;;;34.75;55.48
6829;BME280;17930;48.592;8.868;2023-06-26T10:54:15;96707.84;;;36.36;53.09
6829;BME280;17930;48.592;8.868;2023-06-26T10:56:43;96720.69;;;35.48;54.48
6829;BME280;17930;48.592;8.868;2023-06-26T10:59:15;96715.63;;;34.22;55.54
6829;BME280;17930;48.592;8.868;2023-06-26T11:01:44;96717.38;;;33.80;57.17
6829;BME280;17930;48.592;8.868;2023-06-26T11:04:13;96711.38;;;34.21;56.04
6829;BME280;17930;48.592;8.868;2023-06-26T11:06:45;96734.19;;;33.17;57.37
6829;BME280;17930;48.592;8.868;2023-06-26T11:09:17;96723.84;;;33.67;55.68
6829;BME280;17930;48.592;8.868;2023-06-26T11:11:57;96721.53;;;34.17;55.92
6829;BME280;17930;48.592;8.868;2023-06-26T11:14:27;96713.38;;;35.21;55.38
6829;BME280;17930;48.592;8.868;2023-06-26T11:16:56;96730.84;;;33.49;57.16
6829;BME280;17930;48.592;8.868;2023-06-26T11:19:25;96727.94;;;33.59;58.09
6829;BME280;17930;48.592;8.868;2023-06-26T11:21:52;96728.34;;;33.38;57.39
6829;BME280;17930;48.592;8.868;2023-06-26T11:24:24;96715.09;;;33.79;58.18
6829;BME280;17930;48.592;8.868;2023-06-26T11:26:51;96724.03;;;34.71;56.44
6829;BME280;17930;48.592;8.868;2023-06-26T11:29:18;96710.69;;;35.45;54.50
6829;BME280;17930;48.592;8.868;2023-06-26T11:31:45;96730.06;;;35.47;54.38
6829;BME280;17930;48.592;8.868;2023-06-26T11:34:13;96727.59;;;34.68;55.23
6829;BME280;17930;48.592;8.868;2023-06-26T11:36:42;96720.94;;;36.62;53.15
6829;BME280;17930;48.592;8.868;2023-06-26T11:39:11;96723.94;;;36.42;53.41
6829;BME280;17930;48.592;8.868;2023-06-26T11:41:39;96726.13;;;36.23;53.27
6829;BME280;17930;48.592;8.868;2023-06-26T11:44:08;96716.50;;;36.09;53.22
6829;BME280;17930;48.592;8.868;2023-06-26T11:46:35;96728.78;;;35.89;53.68
6829;BME280;17930;48.592;8.868;2023-06-26T11:49:03;96728.31;;;36.28;53.55
6829;BME280;17930;48.592;8.868;2023-06-26T11:51:30;96740.13;;;35.34;55.04
6829;BME280;17930;48.592;8.868;2023-06-26T11:54:00;96733.75;;;35.13;55.29
6829;BME280;17930;48.592;8.868;2023-06-26T11:56:28;96742.75;;;35.38;55.26
6829;BME280;17930;48.592;8.868;2023-06-26T11:58:55;96732.63;;;35.38;55.98
6829;BME280;17930;48.592;8.868;2023-06-26T12:01:22;96730.63;;;35.27;55.61
6829;BME280;17930;48.592;8.868;2023-06-26T12:03:50;96740.97;;;34.91;55.99
6829;BME280;17930;48.592;8.868;2023-06-26T12:06:17;96746.47;;;34.43;57.18
6829;BME280;17930;48.592;8.868;2023-06-26T12:08:46;96736.56;;;35.37;55.99
6829;BME280;17930;48.592;8.868;2023-06-26T12:11:13;96741.50;;;35.27;55.72
6829;BME280;17930;48.592;8.868;2023-06-26T12:13:40;96743.75;;;34.43;57.22
6829;BME280;17930;48.592;8.868;2023-06-26T12:16:07;96739.75;;;34.92;57.49
6829;BME280;17930;48.592;8.868;2023-06-26T12:18:34;96744.78;;;34.93;57.03
6829;BME280;17930;48.592;8.868;2023-06-26T12:21:01;96742.00;;;35.37;56.49
6829;BME280;17930;48.592;8.868;2023-06-26T12:23:32;96732.00;;;36.21;55.02
6829;BME280;17930;48.592;8.868;2023-06-26T12:26:16;96736.50;;;36.03;55.68
6829;BME280;17930;48.592;8.868;2023-06-26T12:28:44;96731.56;;;36.23;55.12
6829;BME280;17930;48.592;8.868;2023-06-26T12:31:14;96740.38;;;34.83;58.56
6829;BME280;17930;48.592;8.868;2023-06-26T12:33:42;96737.22;;;36.40;56.83
6829;BME280;17930;48.592;8.868;2023-06-26T12:36:12;96738.50;;;35.09;58.34
6829;BME280;17930;48.592;8.868;2023-06-26T12:38:40;96731.97;;;35.34;58.45
6829;BME280;17930;48.592;8.868;2023-06-26T12:41:13;96729.53;;;36.02;57.95
6829;BME280;17930;48.592;8.868;2023-06-26T12:43:41;96728.66;;;36.63;56.24
6829;BME280;17930;48.592;8.868;2023-06-26T12:46:07;96732.38;;;36.57;55.85
6829;BME280;17930;48.592;8.868;2023-06-26T12:48:38;96741.28;;;35.74;55.28
6829;BME280;17930;48.592;8.868;2023-06-26T12:51:10;96732.97;;;35.40;57.27
6829;BME280;17930;48.592;8.868;2023-06-26T12:53:36;96733.44;;;35.11;57.46
6829;BME280;17930;48.592;8.868;2023-06-26T12:56:05;96748.84;;;34.25;58.35
6829;BME280;17930;48.592;8.868;2023-06-26T12:58:33;96744.75;;;34.02;60.33
6829;BME280;17930;48.592;8.868;2023-06-26T13:01:01;96743.75;;;34.43;59.22
6829;BME280;17930;48.592;8.868;2023-06-26T13:03:28;96748.44;;;33.92;59.62
6829;BME280;17930;48.592;8.868;2023-06-26T13:05:55;96728.06;;;34.35;58.91
6829;BME280;17930;48.592;8.868;2023-06-26T13:08:21;96745.09;;;33.69;59.74